createdAt,value
2022-11-07T00:02:07.160Z,1.00
2022-11-07T00:04:35.989Z,1.17
2022-11-07T00:07:06.005Z,1.10
2022-11-07T00:09:34.268Z,1.10
2022-11-07T00:12:02.438Z,1.30
2022-11-07T00:14:30.395Z,1.10
2022-11-07T00:16:58.364Z,1.40
2022-11-07T00:19:26.444Z,1.70
2022-11-07T00:21:54.508Z,1.17
2022-11-07T00:24:23.848Z,1.40
2022-11-07T00:26:51.838Z,1.60
2022-11-07T00:29:21.382Z,1.40
2022-11-07T00:31:49.879Z,2.67
2022-11-07T00:34:19.935Z,3.33
2022-11-07T00:36:47.929Z,0.90
2022-11-07T00:39:16.029Z,2.23
2022-11-07T00:41:48.786Z,0.93
2022-11-07T00:44:17.247Z,0.80
2022-11-07T00:46:45.257Z,1.30
2022-11-07T00:49:13.399Z,3.20
2022-11-07T00:51:42.080Z,1.20
2022-11-07T00:54:10.045Z,1.77
2022-11-07T00:56:38.078Z,0.90
2022-11-07T00:59:07.400Z,1.00
2022-11-07T01:01:36.062Z,1.40
2022-11-07T01:04:21.926Z,0.90
2022-11-07T01:06:49.989Z,2.00
2022-11-07T01:09:20.517Z,0.80
2022-11-07T01:11:49.346Z,1.43
2022-11-07T01:14:20.569Z,2.60
2022-11-07T01:16:48.690Z,2.20
2022-11-07T01:19:16.992Z,0.83
2022-11-07T01:21:45.187Z,1.50
2022-11-07T01:24:14.397Z,1.40
2022-11-07T01:26:44.011Z,1.77
2022-11-07T01:29:12.357Z,1.80
2022-11-07T01:31:41.865Z,1.10
2022-11-07T01:34:10.170Z,1.00
2022-11-07T01:36:38.407Z,0.90
2022-11-07T01:39:06.699Z,1.23
2022-11-07T01:41:37.626Z,0.90
2022-11-07T01:44:44.166Z,0.80
2022-11-07T01:47:13.587Z,1.00
2022-11-07T01:49:43.391Z,3.03
2022-11-07T01:52:16.078Z,0.73
2022-11-07T01:54:49.899Z,0.80
2022-11-07T01:57:22.882Z,1.37
2022-11-07T01:59:54.000Z,1.07
2022-11-07T02:02:25.197Z,1.10
2022-11-07T02:04:53.842Z,0.70
2022-11-07T02:07:24.293Z,2.03
2022-11-07T02:09:53.861Z,0.80
2022-11-07T02:12:23.503Z,5.37
2022-11-07T02:14:51.822Z,1.30
2022-11-07T02:17:20.623Z,1.80
2022-11-07T02:19:51.592Z,0.70
2022-11-07T02:22:27.594Z,0.60
2022-11-07T02:24:59.831Z,1.53
2022-11-07T02:27:31.134Z,1.57
2022-11-07T02:30:03.147Z,2.30
2022-11-07T02:32:31.276Z,0.70
2022-11-07T02:35:00.086Z,0.70
2022-11-07T02:37:31.685Z,0.57
2022-11-07T02:40:02.136Z,0.70
2022-11-07T02:42:43.445Z,0.70
2022-11-07T02:45:15.010Z,2.87
2022-11-07T02:47:43.304Z,0.80
2022-11-07T02:50:12.745Z,0.57
2022-11-07T02:52:40.673Z,1.27
2022-11-07T02:55:11.306Z,0.63
2022-11-07T02:57:39.356Z,0.70
2022-11-07T03:00:10.870Z,1.07
2022-11-07T03:02:39.122Z,0.67
2022-11-07T03:05:08.292Z,1.33
2022-11-07T03:07:36.248Z,0.90
2022-11-07T03:10:04.611Z,0.90
2022-11-07T03:12:33.907Z,1.00
2022-11-07T03:15:01.913Z,0.60
2022-11-07T03:17:29.928Z,3.70
2022-11-07T03:19:57.988Z,2.87
2022-11-07T03:22:25.987Z,0.80
2022-11-07T03:24:53.951Z,1.33
2022-11-07T03:27:22.344Z,0.53
2022-11-07T03:29:51.772Z,0.50
2022-11-07T03:32:19.754Z,1.30
2022-11-07T03:34:47.745Z,0.80
2022-11-07T03:37:16.436Z,0.50
2022-11-07T03:39:44.501Z,3.03
2022-11-07T03:42:12.462Z,0.77
2022-11-07T03:44:40.527Z,0.50
2022-11-07T03:47:09.831Z,0.53
2022-11-07T03:49:37.917Z,0.80
2022-11-07T03:52:06.204Z,1.03
2022-11-07T03:54:34.179Z,1.67
2022-11-07T03:57:02.173Z,0.67
2022-11-07T03:59:30.304Z,0.87
2022-11-07T04:01:58.303Z,0.60
2022-11-07T04:04:27.682Z,0.50
2022-11-07T04:06:55.798Z,0.50
2022-11-07T04:09:23.802Z,0.60
2022-11-07T04:12:09.140Z,0.60
2022-11-07T04:14:54.664Z,0.70
2022-11-07T04:17:22.680Z,1.37
2022-11-07T04:19:54.840Z,0.90
2022-11-07T04:22:23.853Z,0.63
2022-11-07T04:24:51.880Z,1.13
2022-11-07T04:27:37.995Z,1.23
2022-11-07T04:30:20.011Z,0.90
2022-11-07T04:32:48.929Z,0.80
2022-11-07T04:35:19.473Z,2.63
2022-11-07T04:37:48.258Z,1.07
2022-11-07T04:40:17.374Z,0.57
2022-11-07T04:42:46.096Z,0.60
2022-11-07T04:45:14.257Z,0.50
2022-11-07T04:47:42.554Z,0.60
2022-11-07T04:50:13.229Z,0.53
2022-11-07T04:52:42.931Z,0.80
2022-11-07T04:55:17.257Z,0.67
2022-11-07T04:57:45.390Z,0.70
2022-11-07T05:00:14.504Z,0.57
2022-11-07T05:02:42.512Z,1.80
2022-11-07T05:05:11.027Z,0.70
2022-11-07T05:07:39.563Z,0.70
2022-11-07T05:10:17.265Z,0.60
2022-11-07T05:12:45.219Z,0.67
2022-11-07T05:15:13.384Z,0.77
2022-11-07T05:17:41.443Z,1.00
2022-11-07T05:20:19.765Z,1.03
2022-11-07T05:23:05.239Z,0.80
2022-11-07T05:25:34.765Z,0.60
2022-11-07T05:28:02.731Z,0.73
2022-11-07T05:30:30.748Z,1.00
2022-11-07T05:33:01.107Z,1.10
2022-11-07T05:35:29.389Z,2.20
2022-11-07T05:37:57.392Z,0.90
2022-11-07T05:40:25.350Z,0.50
2022-11-07T05:42:59.614Z,8.90
2022-11-07T05:45:27.613Z,0.50
2022-11-07T05:47:58.848Z,2.67
2022-11-07T05:50:26.870Z,0.60
2022-11-07T05:52:54.908Z,0.80
2022-11-07T05:55:23.541Z,0.50
2022-11-07T05:57:51.928Z,1.10
2022-11-07T06:00:21.749Z,2.20
2022-11-07T06:02:56.161Z,0.50
2022-11-07T06:05:26.337Z,0.77
2022-11-07T06:07:54.347Z,0.90
2022-11-07T06:10:22.637Z,0.60
2022-11-07T06:12:59.569Z,0.80
2022-11-07T06:15:31.279Z,0.60
2022-11-07T06:18:00.594Z,0.60
2022-11-07T06:20:28.854Z,1.53
2022-11-07T06:22:59.054Z,0.63
2022-11-07T06:25:27.230Z,0.50
2022-11-07T06:27:59.446Z,1.43
2022-11-07T06:30:29.309Z,1.30
2022-11-07T06:33:01.022Z,1.13
2022-11-07T06:35:29.195Z,1.53
2022-11-07T06:37:57.227Z,0.87
2022-11-07T06:40:25.199Z,0.57
2022-11-07T06:42:53.210Z,0.80
2022-11-07T06:45:22.158Z,0.80
2022-11-07T06:47:51.487Z,0.80
2022-11-07T06:50:21.659Z,1.10
2022-11-07T06:52:49.573Z,1.70
2022-11-07T06:55:17.759Z,2.90
2022-11-07T06:57:45.713Z,1.17
2022-11-07T07:00:15.171Z,1.90
2022-11-07T07:02:58.078Z,1.70
2022-11-07T07:05:28.595Z,0.90
2022-11-07T07:07:59.424Z,2.40
2022-11-07T07:10:27.713Z,2.27
2022-11-07T07:12:56.609Z,1.37
2022-11-07T07:15:24.878Z,1.00
2022-11-07T07:17:52.817Z,0.93
2022-11-07T07:20:20.972Z,1.30
2022-11-07T07:22:57.033Z,1.43
2022-11-07T07:25:30.539Z,1.00
2022-11-07T07:27:58.481Z,1.43
2022-11-07T07:30:26.449Z,3.60
2022-11-07T07:32:54.773Z,3.53
2022-11-07T07:35:22.793Z,4.80
2022-11-07T07:37:52.884Z,5.07
2022-11-07T07:40:22.106Z,3.40
2022-11-07T07:42:50.299Z,3.40
2022-11-07T07:45:18.598Z,5.60
2022-11-07T07:47:46.578Z,3.60
2022-11-07T07:50:15.070Z,4.30
2022-11-07T07:52:43.827Z,3.37
2022-11-07T07:55:13.247Z,1.50
2022-11-07T07:57:42.624Z,0.70
2022-11-07T08:00:12.834Z,1.40
2022-11-07T08:02:43.733Z,0.80
2022-11-07T08:05:12.741Z,0.93
2022-11-07T08:07:46.911Z,1.10
2022-11-07T08:10:40.291Z,1.97
2022-11-07T08:13:05.144Z,1.37
2022-11-07T08:15:33.218Z,1.27
2022-11-07T08:18:04.481Z,15.67
2022-11-07T08:20:32.789Z,3.30
2022-11-07T08:23:04.750Z,1.70
2022-11-07T08:25:34.179Z,1.90
2022-11-07T08:28:02.587Z,0.80
2022-11-07T08:30:31.804Z,1.30
2022-11-07T08:33:01.037Z,3.33
2022-11-07T08:35:28.972Z,11.33
2022-11-07T08:37:56.893Z,1.20
2022-11-07T08:40:25.064Z,1.20
2022-11-07T08:42:54.424Z,1.50
2022-11-07T08:45:22.436Z,1.20
2022-11-07T08:47:50.375Z,1.80
2022-11-07T08:50:18.600Z,2.50
2022-11-07T08:52:46.525Z,2.07
2022-11-07T08:55:14.495Z,1.40
2022-11-07T08:57:42.423Z,2.57
2022-11-07T09:00:13.408Z,2.10
2022-11-07T09:03:18.370Z,1.80
2022-11-07T09:05:29.281Z,2.13
2022-11-07T09:07:57.244Z,2.03
2022-11-07T09:10:25.328Z,2.70
2022-11-07T09:12:53.847Z,2.30
2022-11-07T09:15:23.588Z,3.00
2022-11-07T09:17:51.976Z,2.60
2022-11-07T09:20:20.138Z,3.50
2022-11-07T09:22:48.346Z,3.17
2022-11-07T09:25:16.555Z,2.53
2022-11-07T09:27:45.537Z,2.70
2022-11-07T09:30:14.424Z,4.93
2022-11-07T09:32:45.392Z,11.30
2022-11-07T09:35:14.537Z,11.53
2022-11-07T09:37:43.334Z,13.07
2022-11-07T09:40:24.702Z,15.10
2022-11-07T09:43:04.668Z,14.60
2022-11-07T09:45:35.798Z,14.70
2022-11-07T09:48:07.785Z,15.07
2022-11-07T09:50:39.550Z,17.20
2022-11-07T09:53:13.901Z,18.87
2022-11-07T09:55:47.575Z,19.50
2022-11-07T09:58:27.526Z,20.57
2022-11-07T10:00:58.300Z,21.20
2022-11-07T10:03:27.915Z,21.80
2022-11-07T10:06:01.363Z,22.00
2022-11-07T10:08:35.464Z,24.53
2022-11-07T10:11:09.341Z,24.87
2022-11-07T10:13:51.139Z,28.17
2022-11-07T10:16:23.212Z,29.20
2022-11-07T10:19:05.217Z,9.03
2022-11-07T10:21:42.391Z,11.70
2022-11-07T10:24:29.061Z,25.03
2022-11-07T10:26:58.107Z,19.67
2022-11-07T10:29:44.859Z,19.43
2022-11-07T10:32:21.249Z,21.57
2022-11-07T10:34:57.091Z,22.20
2022-11-07T10:37:25.332Z,21.00
2022-11-07T10:39:53.365Z,22.27
2022-11-07T10:42:24.108Z,25.20
2022-11-07T10:44:55.051Z,20.27
2022-11-07T10:47:25.046Z,22.33
2022-11-07T10:50:00.323Z,20.47
2022-11-07T10:52:29.983Z,24.77
2022-11-07T10:55:09.312Z,20.60
2022-11-07T10:57:37.487Z,34.57
2022-11-07T11:00:21.520Z,25.90
2022-11-07T11:02:50.780Z,18.77
2022-11-07T11:05:25.954Z,28.37
2022-11-07T11:07:56.679Z,20.40
2022-11-07T11:10:27.298Z,20.33
2022-11-07T11:12:55.424Z,20.50
2022-11-07T11:15:25.459Z,21.27
2022-11-07T11:18:02.520Z,22.37
2022-11-07T11:20:38.895Z,21.83
2022-11-07T11:23:09.022Z,20.23
2022-11-07T11:25:48.810Z,20.53
2022-11-07T11:28:24.920Z,19.37
2022-11-07T11:30:59.337Z,19.50
2022-11-07T11:33:33.151Z,18.73
2022-11-07T11:36:10.763Z,19.75
2022-11-07T11:38:39.321Z,20.40
2022-11-07T11:41:17.331Z,20.90
2022-11-07T11:43:49.537Z,20.80
2022-11-07T11:46:27.654Z,19.47
2022-11-07T11:49:00.841Z,20.60
2022-11-07T11:51:38.654Z,20.53
2022-11-07T11:54:10.227Z,21.07
2022-11-07T11:56:53.613Z,22.37
2022-11-07T11:59:49.378Z,27.73
2022-11-07T12:02:50.120Z,59.00
2022-11-07T12:05:36.020Z,62.47
2022-11-07T12:08:20.570Z,60.87
2022-11-07T12:10:55.833Z,60.57
2022-11-07T12:13:32.220Z,58.53
2022-11-07T12:16:17.879Z,57.37
2022-11-07T12:18:54.937Z,59.47
2022-11-07T12:21:33.705Z,58.40
2022-11-07T12:24:24.155Z,62.73
2022-11-07T12:26:59.495Z,60.43
2022-11-07T12:29:34.892Z,65.37
2022-11-07T12:32:15.471Z,62.90
2022-11-07T12:35:03.237Z,64.83
2022-11-07T12:38:03.265Z,58.20
2022-11-07T12:40:42.452Z,56.33
2022-11-07T12:43:25.851Z,55.60
2022-11-07T12:45:58.234Z,54.63
2022-11-07T12:48:57.536Z,57.00
2022-11-07T12:51:36.609Z,56.43
2022-11-07T12:54:21.525Z,52.90
2022-11-07T12:56:51.975Z,59.13
2022-11-07T12:59:25.916Z,27.33
2022-11-07T13:02:01.204Z,24.77
2022-11-07T13:04:39.524Z,28.10
2022-11-07T13:07:14.341Z,30.40
2022-11-07T13:09:51.815Z,30.37
2022-11-07T13:12:28.140Z,31.00
2022-11-07T13:14:57.135Z,27.87
2022-11-07T13:17:27.759Z,26.60
2022-11-07T13:20:04.919Z,32.40
2022-11-07T13:22:35.535Z,33.67
2022-11-07T13:25:26.089Z,36.00
2022-11-07T13:28:08.283Z,27.83
2022-11-07T13:30:38.855Z,28.43
2022-11-07T13:33:09.130Z,27.00
2022-11-07T13:35:38.673Z,28.50
2022-11-07T13:38:13.617Z,38.63
2022-11-07T13:40:47.972Z,31.87
2022-11-07T13:43:20.812Z,30.30
2022-11-07T13:45:50.949Z,33.20
2022-11-07T13:48:23.064Z,34.23
2022-11-07T13:50:58.914Z,30.70
2022-11-07T13:53:34.127Z,31.80
2022-11-07T13:56:06.114Z,29.60
2022-11-07T13:58:39.715Z,30.77
2022-11-07T14:01:11.666Z,32.93
2022-11-07T14:03:40.038Z,32.40
2022-11-07T14:06:08.869Z,38.07
2022-11-07T14:08:40.798Z,33.10
2022-11-07T14:11:17.088Z,36.70
2022-11-07T14:13:48.539Z,36.63
2022-11-07T14:16:21.862Z,31.33
2022-11-07T14:18:51.837Z,27.47
2022-11-07T14:21:26.649Z,26.10
2022-11-07T14:23:54.835Z,27.07
2022-11-07T14:26:26.010Z,28.20
2022-11-07T14:28:57.748Z,30.13
2022-11-07T14:31:29.344Z,28.10
2022-11-07T14:33:59.717Z,30.87
2022-11-07T14:36:29.033Z,33.30
2022-11-07T14:39:02.873Z,32.30
2022-11-07T14:41:31.362Z,28.07
2022-11-07T14:44:04.830Z,32.67
2022-11-07T14:46:33.080Z,28.53
2022-11-07T14:49:01.427Z,27.63
2022-11-07T14:51:30.213Z,27.70
2022-11-07T14:54:03.851Z,32.73
2022-11-07T14:56:36.588Z,31.90
2022-11-07T14:59:08.961Z,31.53
2022-11-07T15:01:37.070Z,37.13
2022-11-07T15:04:17.604Z,35.77
2022-11-07T15:06:46.713Z,34.13
2022-11-07T15:09:15.209Z,32.37
2022-11-07T15:11:54.876Z,25.90
2022-11-07T15:14:30.457Z,29.60
2022-11-07T15:16:58.577Z,28.23
2022-11-07T15:19:26.646Z,24.47
2022-11-07T15:21:56.791Z,22.58
2022-11-07T15:24:35.503Z,22.10
2022-11-07T15:27:06.083Z,18.43
2022-11-07T15:29:37.143Z,19.13
2022-11-07T15:32:08.828Z,17.40
2022-11-07T15:34:58.679Z,16.70
2022-11-07T15:37:27.061Z,17.73
2022-11-07T15:39:55.619Z,17.20
2022-11-07T15:42:23.588Z,14.50
2022-11-07T15:44:52.954Z,13.00
2022-11-07T15:47:23.090Z,11.27
2022-11-07T15:49:51.572Z,9.63
2022-11-07T15:52:19.554Z,9.33
2022-11-07T15:54:47.641Z,9.03
2022-11-07T15:57:15.627Z,9.83
2022-11-07T15:59:43.847Z,8.80
2022-11-07T16:02:16.733Z,9.53
2022-11-07T16:04:44.931Z,8.37
2022-11-07T16:07:17.636Z,7.27
2022-11-07T16:09:48.487Z,7.97
2022-11-07T16:12:18.529Z,7.57
2022-11-07T16:14:46.504Z,5.60
2022-11-07T16:17:16.949Z,6.00
2022-11-07T16:19:45.011Z,5.50
2022-11-07T16:22:14.359Z,6.77
2022-11-07T16:24:42.353Z,5.97
2022-11-07T16:27:14.466Z,6.30
2022-11-07T16:29:44.182Z,5.03
2022-11-07T16:32:18.503Z,5.53
2022-11-07T16:34:46.982Z,5.00
2022-11-07T16:37:14.936Z,4.37
2022-11-07T16:39:43.050Z,5.17
2022-11-07T16:42:15.659Z,4.30
2022-11-07T16:44:43.800Z,3.63
2022-11-07T16:47:17.092Z,3.97
2022-11-07T16:49:45.236Z,5.90
2022-11-07T16:52:15.989Z,5.13
2022-11-07T16:54:44.098Z,5.37
2022-11-07T16:57:14.511Z,3.10
2022-11-07T16:59:43.272Z,2.90
2022-11-07T17:02:21.577Z,4.17
2022-11-07T17:04:53.072Z,6.30
2022-11-07T17:07:24.087Z,2.57
2022-11-07T17:09:52.312Z,2.80
2022-11-07T17:12:22.644Z,3.63
2022-11-07T17:14:51.218Z,2.53
2022-11-07T17:17:20.951Z,37.90
2022-11-07T17:19:49.057Z,2.00
2022-11-07T17:22:17.820Z,2.17
2022-11-07T17:24:45.931Z,2.60
2022-11-07T17:27:31.478Z,2.53
2022-11-07T17:30:02.073Z,2.88
2022-11-07T17:32:33.868Z,2.93
2022-11-07T17:35:30.082Z,3.27
2022-11-07T17:37:49.803Z,2.90
2022-11-07T17:40:22.769Z,2.97
2022-11-07T17:42:50.716Z,4.20
2022-11-07T17:45:18.837Z,1.33
2022-11-07T17:47:48.179Z,1.10
2022-11-07T17:50:17.674Z,2.27
2022-11-07T17:52:45.711Z,2.00
2022-11-07T17:55:13.982Z,1.53
2022-11-07T17:57:43.446Z,4.10
2022-11-07T18:00:16.651Z,1.90
2022-11-07T18:02:44.858Z,2.07
2022-11-07T18:05:19.109Z,1.60
2022-11-07T18:07:47.168Z,0.93
2022-11-07T18:10:16.438Z,3.83
2022-11-07T18:12:44.666Z,2.80
2022-11-07T18:15:13.441Z,2.03
2022-11-07T18:17:42.217Z,1.33
2022-11-07T18:20:11.619Z,1.53
2022-11-07T18:22:40.912Z,1.70
2022-11-07T18:25:10.002Z,2.53
2022-11-07T18:27:37.954Z,1.40
2022-11-07T18:30:07.163Z,1.80
2022-11-07T18:32:36.815Z,2.17
2022-11-07T18:35:06.129Z,1.93
2022-11-07T18:37:34.355Z,1.70
2022-11-07T18:40:03.774Z,2.83
2022-11-07T18:42:31.729Z,2.13
2022-11-07T18:44:59.769Z,1.43
2022-11-07T18:47:29.601Z,1.70
2022-11-07T18:49:57.798Z,3.00
2022-11-07T18:52:25.824Z,2.37
2022-11-07T18:54:54.226Z,2.17
2022-11-07T18:57:23.579Z,2.83
2022-11-07T18:59:51.605Z,3.03
2022-11-07T19:02:19.564Z,0.90
2022-11-07T19:04:47.753Z,1.70
2022-11-07T19:07:15.670Z,1.97
2022-11-07T19:09:43.679Z,2.67
2022-11-07T19:12:11.637Z,1.73
2022-11-07T19:14:41.030Z,1.33
2022-11-07T19:17:08.995Z,2.20
2022-11-07T19:19:37.207Z,1.33
2022-11-07T19:22:05.672Z,2.53
2022-11-07T19:24:33.681Z,0.90
2022-11-07T19:27:01.973Z,1.27
2022-11-07T19:29:30.033Z,2.13
2022-11-07T19:31:59.485Z,1.53
2022-11-07T19:34:27.533Z,1.67
2022-11-07T19:36:55.494Z,1.20
2022-11-07T19:39:23.509Z,3.80
2022-11-07T19:41:51.543Z,1.43
2022-11-07T19:44:19.732Z,1.83
2022-11-07T19:46:47.988Z,1.33
2022-11-07T19:49:17.327Z,1.70
2022-11-07T19:51:45.305Z,1.73
2022-11-07T19:54:13.677Z,2.30
2022-11-07T19:56:41.642Z,2.37
2022-11-07T19:59:10.923Z,3.10
2022-11-07T20:01:39.523Z,3.80
2022-11-07T20:04:08.870Z,1.60
2022-11-07T20:06:39.599Z,2.50
2022-11-07T20:09:09.629Z,1.17
2022-11-07T20:11:37.933Z,0.90
2022-11-07T20:14:06.169Z,1.67
2022-11-07T20:16:42.640Z,2.57
2022-11-07T20:19:11.839Z,2.17
2022-11-07T20:21:41.217Z,1.13
2022-11-07T20:24:10.052Z,1.07
2022-11-07T20:26:38.592Z,0.83
2022-11-07T20:29:07.413Z,2.63
2022-11-07T20:31:37.730Z,0.80
2022-11-07T20:34:08.676Z,3.37
2022-11-07T20:36:36.795Z,2.10
2022-11-07T20:39:07.367Z,1.23
2022-11-07T20:41:36.152Z,1.67
2022-11-07T20:44:06.625Z,1.13
2022-11-07T20:46:36.520Z,0.97
2022-11-07T20:49:08.404Z,1.93
2022-11-07T20:51:36.342Z,1.03
2022-11-07T20:54:05.895Z,1.90
2022-11-07T20:56:34.260Z,0.77
2022-11-07T20:59:02.397Z,1.67
2022-11-07T21:01:36.274Z,1.30
2022-11-07T21:04:05.517Z,1.53
2022-11-07T21:06:33.818Z,0.60
2022-11-07T21:09:02.183Z,2.00
2022-11-07T21:11:32.004Z,1.47
2022-11-07T21:14:00.369Z,1.37
2022-11-07T21:16:29.127Z,3.80
2022-11-07T21:18:57.790Z,0.50
2022-11-07T21:21:33.574Z,0.73
2022-11-07T21:24:02.006Z,1.33
2022-11-07T21:26:33.352Z,0.93
2022-11-07T21:29:02.114Z,1.00
2022-11-07T21:31:31.848Z,0.80
2022-11-07T21:34:00.148Z,1.83
2022-11-07T21:36:30.219Z,1.70
2022-11-07T21:38:59.435Z,1.17
2022-11-07T21:41:27.890Z,0.70
2022-11-07T21:43:59.603Z,0.63
2022-11-07T21:46:29.328Z,1.43
2022-11-07T21:48:58.473Z,2.10
2022-11-07T21:51:30.982Z,1.13
2022-11-07T21:53:59.975Z,1.73
2022-11-07T21:56:29.344Z,1.50
2022-11-07T21:59:00.371Z,2.73
2022-11-07T22:01:29.248Z,2.17
2022-11-07T22:04:07.217Z,3.20
2022-11-07T22:06:37.614Z,1.67
2022-11-07T22:09:06.135Z,0.60
2022-11-07T22:11:34.562Z,0.83
2022-11-07T22:14:03.910Z,1.07
2022-11-07T22:16:32.317Z,0.73
2022-11-07T22:19:01.077Z,1.03
2022-11-07T22:21:31.313Z,1.53
2022-11-07T22:23:59.668Z,1.37
2022-11-07T22:26:29.501Z,1.50
2022-11-07T22:28:58.501Z,1.67
2022-11-07T22:31:30.276Z,1.50
2022-11-07T22:34:00.827Z,1.37
2022-11-07T22:36:29.797Z,1.03
2022-11-07T22:38:58.798Z,1.27
2022-11-07T22:41:29.148Z,1.00
2022-11-07T22:43:58.149Z,1.70
2022-11-07T22:46:30.458Z,1.70
2022-11-07T22:49:01.866Z,5.00
2022-11-07T22:51:31.821Z,3.10
2022-11-07T22:54:00.123Z,0.70
2022-11-07T22:56:28.347Z,0.80
2022-11-07T22:58:56.973Z,2.20
2022-11-07T23:01:28.512Z,2.10
2022-11-07T23:03:57.608Z,1.83
2022-11-07T23:06:26.980Z,0.60
2022-11-07T23:08:57.104Z,0.67
2022-11-07T23:14:17.350Z,1.20
2022-11-07T23:16:48.930Z,0.53
2022-11-07T23:19:18.590Z,2.00
2022-11-07T23:21:46.682Z,4.10
2022-11-07T23:24:16.066Z,1.03
2022-11-07T23:26:44.362Z,0.60
2022-11-07T23:29:14.996Z,0.40
2022-11-07T23:31:45.374Z,1.37
2022-11-07T23:34:15.469Z,0.70
2022-11-07T23:36:44.648Z,0.60
2022-11-07T23:39:15.624Z,1.20
2022-11-07T23:41:44.786Z,0.50
2022-11-07T23:44:13.360Z,1.50
2022-11-07T23:46:59.011Z,0.30
2022-11-07T23:49:45.998Z,0.80
2022-11-07T23:52:13.995Z,0.63
2022-11-07T23:54:59.911Z,4.13
2022-11-07T23:57:27.966Z,2.63
